sensor_id;sensor_type;location;lat;lon;timestamp;pressure;altitude;pressure_sealevel;temperature;humidity
60583;BME280;46415;47.536;19.066;2023-01-10T00:01:12;99122.22;;;5.69;100.00
60583;BME280;46415;47.536;19.066;2023-01-10T00:04:15;99122.22;;;5.69;100.00
60583;BME280;46415;47.536;19.066;2023-01-10T00:07:17;99121.38;;;5.69;100.00
60583;BME280;46415;47.536;19.066;2023-01-10T00:10:21;99114.56;;;5.68;100.00
60583;BME280;46415;47.536;19.066;2023-01-10T00:13:23;99120.53;;;5.68;100.00
60583;BME280;46415;47.536;19.066;2023-01-10T00:16:26;99122.34;;;5.66;100.00
60583;BME280;46415;47.536;19.066;2023-01-10T00:19:30;99123.06;;;5.70;100.00
60583;BME280;46415;47.536;19.066;2023-01-10T00:22:33;99121.38;;;5.69;100.00
60583;BME280;46415;47.536;19.066;2023-01-10T00:25:35;99122.28;;;5.68;100.00
60583;BME280;46415;47.536;19.066;2023-01-10T00:28:39;99117.91;;;5.70;100.00
60583;BME280;46415;47.536;19.066;2023-01-10T00:31:42;99120.53;;;5.68;100.00
60583;BME280;46415;47.536;19.066;2023-01-10T00:34:45;99117.91;;;5.70;100.00
60583;BME280;46415;47.536;19.066;2023-01-10T00:37:47;99103.50;;;5.66;100.00
60583;BME280;46415;47.536;19.066;2023-01-10T00:40:51;99107.88;;;5.64;100.00
60583;BME280;46415;47.536;19.066;2023-01-10T00:43:53;99106.34;;;5.60;100.00
60583;BME280;46415;47.536;19.066;2023-01-10T00:46:59;99106.47;;;5.57;100.00
60583;BME280;46415;47.536;19.066;2023-01-10T00:50:03;99103.91;;;5.57;100.00
60583;BME280;46415;47.536;19.066;2023-01-10T00:53:08;99110.78;;;5.56;100.00
60583;BME280;46415;47.536;19.066;2023-01-10T00:56:11;99109.81;;;5.59;100.00
60583;BME280;46415;47.536;19.066;2023-01-10T00:59:14;99111.63;;;5.57;100.00
60583;BME280;46415;47.536;19.066;2023-01-10T01:02:16;99109.03;;;5.57;100.00
60583;BME280;46415;47.536;19.066;2023-01-10T01:05:19;99111.56;;;5.58;100.00
60583;BME280;46415;47.536;19.066;2023-01-10T01:08:22;99115.72;;;5.61;100.00
60583;BME280;46415;47.536;19.066;2023-01-10T01:11:25;99114.81;;;5.62;100.00
60583;BME280;46415;47.536;19.066;2023-01-10T01:14:28;99115.72;;;5.61;100.00
60583;BME280;46415;47.536;19.066;2023-01-10T01:17:31;99110.44;;;5.64;100.00
60583;BME280;46415;47.536;19.066;2023-01-10T01:20:33;99113.03;;;5.64;100.00
60583;BME280;46415;47.536;19.066;2023-01-10T01:23:36;99105.78;;;5.72;100.00
60583;BME280;46415;47.536;19.066;2023-01-10T01:26:39;99102.59;;;5.67;100.00
60583;BME280;46415;47.536;19.066;2023-01-10T01:29:44;99100.94;;;5.66;100.00
60583;BME280;46415;47.536;19.066;2023-01-10T01:32:47;99098.22;;;5.69;100.00
60583;BME280;46415;47.536;19.066;2023-01-10T01:35:50;99101.69;;;5.68;100.00
60583;BME280;46415;47.536;19.066;2023-01-10T01:38:52;99099.94;;;5.68;100.00
60583;BME280;46415;47.536;19.066;2023-01-10T01:41:55;99106.88;;;5.66;100.00
60583;BME280;46415;47.536;19.066;2023-01-10T01:48:17;99101.56;;;5.71;100.00
60583;BME280;46415;47.536;19.066;2023-01-10T01:51:25;99090.34;;;5.72;100.00
60583;BME280;46415;47.536;19.066;2023-01-10T01:54:30;99104.31;;;5.66;100.00
60583;BME280;46415;47.536;19.066;2023-01-10T01:57:33;99099.88;;;5.70;100.00
60583;BME280;46415;47.536;19.066;2023-01-10T02:00:37;99093.97;;;5.68;100.00
60583;BME280;46415;47.536;19.066;2023-01-10T02:03:42;99100.94;;;5.66;100.00
60583;BME280;46415;47.536;19.066;2023-01-10T02:06:47;99100.63;;;5.72;100.00
60583;BME280;46415;47.536;19.066;2023-01-10T02:09:57;99113.50;;;5.72;100.00
60583;BME280;46415;47.536;19.066;2023-01-10T02:13:04;99121.94;;;5.75;100.00
60583;BME280;46415;47.536;19.066;2023-01-10T02:16:07;99123.00;;;5.71;100.00
60583;BME280;46415;47.536;19.066;2023-01-10T02:19:23;99133.34;;;5.70;100.00
60583;BME280;46415;47.536;19.066;2023-01-10T02:32:37;99122.63;;;5.79;100.00
60583;BME280;46415;47.536;19.066;2023-01-10T02:36:16;99124.19;;;5.83;100.00
60583;BME280;46415;47.536;19.066;2023-01-10T02:42:53;99115.00;;;5.78;100.00
60583;BME280;46415;47.536;19.066;2023-01-10T02:46:14;99115.81;;;5.78;100.00
60583;BME280;46415;47.536;19.066;2023-01-10T02:49:18;99111.44;;;5.80;100.00
60583;BME280;46415;47.536;19.066;2023-01-10T02:52:27;99112.53;;;5.74;100.00
60583;BME280;46415;47.536;19.066;2023-01-10T02:56:19;99111.66;;;5.75;100.00
60583;BME280;46415;47.536;19.066;2023-01-10T02:59:41;99112.88;;;5.67;100.00
60583;BME280;46415;47.536;19.066;2023-01-10T03:03:07;99118.03;;;5.67;100.00
60583;BME280;46415;47.536;19.066;2023-01-10T03:06:37;99119.69;;;5.68;100.00
60583;BME280;46415;47.536;19.066;2023-01-10T03:13:04;99131.53;;;5.72;100.00
60583;BME280;46415;47.536;19.066;2023-01-10T03:16:16;99137.34;;;5.77;100.00
60583;BME280;46415;47.536;19.066;2023-01-10T03:19:22;99140.03;;;5.74;100.00
60583;BME280;46415;47.536;19.066;2023-01-10T03:22:28;99145.16;;;5.74;100.00
60583;BME280;46415;47.536;19.066;2023-01-10T03:25:35;99148.53;;;5.76;100.00
60583;BME280;46415;47.536;19.066;2023-01-10T03:28:48;99144.06;;;5.80;100.00
60583;BME280;46415;47.536;19.066;2023-01-10T03:31:56;99140.16;;;5.71;100.00
60583;BME280;46415;47.536;19.066;2023-01-10T03:35:01;99141.06;;;5.70;100.00
60583;BME280;46415;47.536;19.066;2023-01-10T03:38:14;99147.75;;;5.74;100.00
60583;BME280;46415;47.536;19.066;2023-01-10T03:45:10;99142.91;;;5.66;100.00
60583;BME280;46415;47.536;19.066;2023-01-10T03:48:18;99142.13;;;5.66;100.00
60583;BME280;46415;47.536;19.066;2023-01-10T03:51:24;99146.44;;;5.65;100.00
60583;BME280;46415;47.536;19.066;2023-01-10T03:54:28;99148.91;;;5.67;100.00
60583;BME280;46415;47.536;19.066;2023-01-10T03:57:32;99147.25;;;5.66;100.00
60583;BME280;46415;47.536;19.066;2023-01-10T04:00:34;99148.16;;;5.65;100.00
60583;BME280;46415;47.536;19.066;2023-01-10T04:03:37;99159.34;;;5.64;100.00
60583;BME280;46415;47.536;19.066;2023-01-10T04:06:40;99161.78;;;5.67;100.00
60583;BME280;46415;47.536;19.066;2023-01-10T04:09:44;99167.84;;;5.66;100.00
60583;BME280;46415;47.536;19.066;2023-01-10T04:12:47;99174.84;;;5.62;100.00
60583;BME280;46415;47.536;19.066;2023-01-10T04:15:50;99178.16;;;5.66;100.00
60583;BME280;46415;47.536;19.066;2023-01-10T04:18:53;99165.13;;;5.69;100.00
60583;BME280;46415;47.536;19.066;2023-01-10T04:21:56;99173.50;;;5.74;100.00
60583;BME280;46415;47.536;19.066;2023-01-10T04:24:59;99157.41;;;5.69;100.00
60583;BME280;46415;47.536;19.066;2023-01-10T04:28:02;99157.47;;;5.67;100.00
60583;BME280;46415;47.536;19.066;2023-01-10T04:31:04;99162.41;;;5.72;100.00
60583;BME280;46415;47.536;19.066;2023-01-10T04:34:08;99159.72;;;5.75;100.00
60583;BME280;46415;47.536;19.066;2023-01-10T04:37:11;99158.94;;;5.73;100.00
60583;BME280;46415;47.536;19.066;2023-01-10T04:40:14;99160.88;;;5.68;100.00
60583;BME280;46415;47.536;19.066;2023-01-10T04:43:21;99159.72;;;5.75;100.00
60583;BME280;46415;47.536;19.066;2023-01-10T04:46:25;99162.41;;;5.72;100.00
60583;BME280;46415;47.536;19.066;2023-01-10T04:49:28;99166.59;;;5.74;100.00
60583;BME280;46415;47.536;19.066;2023-01-10T04:52:31;99177.84;;;5.72;100.00
60583;BME280;46415;47.536;19.066;2023-01-10T04:55:34;99185.78;;;5.67;100.00
60583;BME280;46415;47.536;19.066;2023-01-10T04:58:37;99183.94;;;5.71;100.00
60583;BME280;46415;47.536;19.066;2023-01-10T05:01:40;99204.44;;;5.72;100.00
60583;BME280;46415;47.536;19.066;2023-01-10T05:04:43;99197.50;;;5.74;100.00
60583;BME280;46415;47.536;19.066;2023-01-10T05:07:46;99207.09;;;5.71;100.00
60583;BME280;46415;47.536;19.066;2023-01-10T05:10:49;99208.00;;;5.70;100.00
60583;BME280;46415;47.536;19.066;2023-01-10T05:13:51;99223.28;;;5.73;100.00
60583;BME280;46415;47.536;19.066;2023-01-10T05:16:54;99228.59;;;5.70;100.00
60583;BME280;46415;47.536;19.066;2023-01-10T05:19:57;99221.69;;;5.70;100.00
60583;BME280;46415;47.536;19.066;2023-01-10T05:23:00;99229.91;;;5.79;100.00
60583;BME280;46415;47.536;19.066;2023-01-10T05:26:08;99233.69;;;5.71;100.00
60583;BME280;46415;47.536;19.066;2023-01-10T05:29:12;99239.63;;;5.72;100.00
60583;BME280;46415;47.536;19.066;2023-01-10T05:32:15;99252.38;;;5.75;100.00
60583;BME280;46415;47.536;19.066;2023-01-10T05:35:20;99250.72;;;5.74;100.00
60583;BME280;46415;47.536;19.066;2023-01-10T05:38:22;99248.13;;;5.74;100.00
60583;BME280;46415;47.536;19.066;2023-01-10T05:41:25;99243.81;;;5.74;100.00
60583;BME280;46415;47.536;19.066;2023-01-10T05:44:31;99243.56;;;5.81;100.00
60583;BME280;46415;47.536;19.066;2023-01-10T05:47:33;99242.78;;;5.79;100.00
60583;BME280;46415;47.536;19.066;2023-01-10T05:50:37;99241.47;;;5.70;100.00
60583;BME280;46415;47.536;19.066;2023-01-10T05:53:39;99243.12;;;5.71;100.00
60583;BME280;46415;47.536;19.066;2023-01-10T05:56:42;99246.59;;;5.70;100.00
60583;BME280;46415;47.536;19.066;2023-01-10T05:59:45;99254.97;;;5.75;100.00
60583;BME280;46415;47.536;19.066;2023-01-10T06:02:48;99247.44;;;5.70;100.00
60583;BME280;46415;47.536;19.066;2023-01-10T06:05:52;99264.69;;;5.68;100.00
60583;BME280;46415;47.536;19.066;2023-01-10T06:08:55;99275.75;;;5.70;100.00
60583;BME280;46415;47.536;19.066;2023-01-10T06:12:00;99276.84;;;5.65;100.00
60583;BME280;46415;47.536;19.066;2023-01-10T06:15:03;99284.56;;;5.65;100.00
60583;BME280;46415;47.536;19.066;2023-01-10T06:18:06;99293.88;;;5.67;100.00
60583;BME280;46415;47.536;19.066;2023-01-10T06:21:13;99302.63;;;5.63;100.00
60583;BME280;46415;47.536;19.066;2023-01-10T06:24:16;99304.16;;;5.47;100.00
60583;BME280;46415;47.536;19.066;2023-01-10T06:27:19;99307.63;;;5.46;100.00
60583;BME280;46415;47.536;19.066;2023-01-10T06:30:22;99314.28;;;5.30;100.00
60583;BME280;46415;47.536;19.066;2023-01-10T06:33:24;99316.03;;;5.29;100.00
60583;BME280;46415;47.536;19.066;2023-01-10T06:36:28;99322.13;;;5.27;100.00
60583;BME280;46415;47.536;19.066;2023-01-10T06:39:30;99327.31;;;5.25;100.00
60583;BME280;46415;47.536;19.066;2023-01-10T06:42:33;99337.00;;;5.19;100.00
60583;BME280;46415;47.536;19.066;2023-01-10T06:45:36;99332.44;;;5.25;100.00
60583;BME280;46415;47.536;19.066;2023-01-10T06:48:39;99331.75;;;5.22;100.00
60583;BME280;46415;47.536;19.066;2023-01-10T06:51:41;99330.25;;;5.16;100.00
60583;BME280;46415;47.536;19.066;2023-01-10T06:54:45;99342.12;;;5.19;100.00
60583;BME280;46415;47.536;19.066;2023-01-10T06:57:47;99339.75;;;5.14;100.00
60583;BME280;46415;47.536;19.066;2023-01-10T07:00:50;99342.38;;;5.13;100.00
60583;BME280;46415;47.536;19.066;2023-01-10T07:03:53;99351.72;;;5.15;100.00
60583;BME280;46415;47.536;19.066;2023-01-10T07:06:56;99362.00;;;5.15;100.00
60583;BME280;46415;47.536;19.066;2023-01-10T07:09:58;99368.03;;;5.14;100.00
60583;BME280;46415;47.536;19.066;2023-01-10T07:13:01;99374.06;;;5.13;100.00
60583;BME280;46415;47.536;19.066;2023-01-10T07:16:06;99388.59;;;5.14;100.00
60583;BME280;46415;47.536;19.066;2023-01-10T07:19:09;99395.47;;;5.14;100.00
60583;BME280;46415;47.536;19.066;2023-01-10T07:22:14;99397.28;;;5.12;100.00
60583;BME280;46415;47.536;19.066;2023-01-10T07:25:17;99406.63;;;5.14;100.00
60583;BME280;46415;47.536;19.066;2023-01-10T07:28:20;99409.97;;;5.16;100.00
60583;BME280;46415;47.536;19.066;2023-01-10T07:31:23;99412.53;;;5.16;100.00
60583;BME280;46415;47.536;19.066;2023-01-10T07:34:26;99416.91;;;5.14;100.00
60583;BME280;46415;47.536;19.066;2023-01-10T07:37:29;99421.94;;;5.17;100.00
60583;BME280;46415;47.536;19.066;2023-01-10T07:40:32;99431.09;;;5.24;100.00
60583;BME280;46415;47.536;19.066;2023-01-10T07:43:35;99443.25;;;5.21;100.00
60583;BME280;46415;47.536;19.066;2023-01-10T07:46:38;99443.47;;;5.15;100.00
60583;BME280;46415;47.536;19.066;2023-01-10T07:49:41;99460.63;;;5.14;100.00
60583;BME280;46415;47.536;19.066;2023-01-10T07:52:43;99464.00;;;5.16;100.00
60583;BME280;46415;47.536;19.066;2023-01-10T07:55:46;99470.16;;;5.12;100.00
60583;BME280;46415;47.536;19.066;2023-01-10T07:58:49;99480.44;;;5.12;100.00
60583;BME280;46415;47.536;19.066;2023-01-10T08:01:52;99480.88;;;5.00;100.00
60583;BME280;46415;47.536;19.066;2023-01-10T08:04:55;99498.16;;;4.95;100.00
60583;BME280;46415;47.536;19.066;2023-01-10T08:08:09;99494.81;;;4.93;100.00
60583;BME280;46415;47.536;19.066;2023-01-10T08:11:12;99498.37;;;4.89;100.00
60583;BME280;46415;47.536;19.066;2023-01-10T08:14:15;99504.91;;;4.99;100.00
60583;BME280;46415;47.536;19.066;2023-01-10T08:17:18;99513.44;;;5.00;100.00
60583;BME280;46415;47.536;19.066;2023-01-10T08:20:21;99527.03;;;5.03;100.00
60583;BME280;46415;47.536;19.066;2023-01-10T08:23:24;99534.69;;;5.05;100.00
60583;BME280;46415;47.536;19.066;2023-01-10T08:26:26;99538.16;;;5.04;100.00
60583;BME280;46415;47.536;19.066;2023-01-10T08:29:29;99546.75;;;5.03;100.00
60583;BME280;46415;47.536;19.066;2023-01-10T08:32:32;99559.66;;;5.01;100.00
60583;BME280;46415;47.536;19.066;2023-01-10T08:35:40;99569.00;;;5.04;100.00
60583;BME280;46415;47.536;19.066;2023-01-10T08:38:44;99564.13;;;4.96;100.00
60583;BME280;46415;47.536;19.066;2023-01-10T08:41:48;99569.25;;;4.96;100.00
60583;BME280;46415;47.536;19.066;2023-01-10T08:44:50;99575.88;;;5.03;100.00
60583;BME280;46415;47.536;19.066;2023-01-10T08:47:53;99589.66;;;5.01;100.00
60583;BME280;46415;47.536;19.066;2023-01-10T08:50:56;99590.84;;;4.92;100.00
60583;BME280;46415;47.536;19.066;2023-01-10T08:53:59;99597.59;;;4.94;100.00
60583;BME280;46415;47.536;19.066;2023-01-10T08:57:02;99607.25;;;4.88;100.00
60583;BME280;46415;47.536;19.066;2023-01-10T09:00:05;99618.50;;;4.84;100.00
60583;BME280;46415;47.536;19.066;2023-01-10T09:03:08;99625.47;;;4.82;100.00
60583;BME280;46415;47.536;19.066;2023-01-10T09:06:11;99632.31;;;4.81;100.00
60583;BME280;46415;47.536;19.066;2023-01-10T09:09:14;99646.88;;;4.82;100.00
60583;BME280;46415;47.536;19.066;2023-01-10T09:12:17;99653.66;;;4.83;100.00
60583;BME280;46415;47.536;19.066;2023-01-10T09:15:38;99658.87;;;4.82;100.00
60583;BME280;46415;47.536;19.066;2023-01-10T09:18:41;99666.78;;;4.76;100.00
60583;BME280;46415;47.536;19.066;2023-01-10T09:21:44;99674.38;;;4.79;100.00
60583;BME280;46415;47.536;19.066;2023-01-10T09:24:47;99677.94;;;4.75;100.00
60583;BME280;46415;47.536;19.066;2023-01-10T09:28:00;99683.13;;;4.73;100.00
60583;BME280;46415;47.536;19.066;2023-01-10T09:31:03;99687.72;;;4.64;100.00
60583;BME280;46415;47.536;19.066;2023-01-10T09:34:06;99696.37;;;4.60;100.00
60583;BME280;46415;47.536;19.066;2023-01-10T09:37:10;99703.31;;;4.58;100.00
60583;BME280;46415;47.536;19.066;2023-01-10T09:40:18;99707.62;;;4.57;100.00
60583;BME280;46415;47.536;19.066;2023-01-10T09:50:48;99732.66;;;4.50;100.00
60583;BME280;46415;47.536;19.066;2023-01-10T09:53:57;99736.19;;;4.46;100.00
60583;BME280;46415;47.536;19.066;2023-01-10T09:57:18;99743.09;;;4.44;100.00
60583;BME280;46415;47.536;19.066;2023-01-10T10:00:26;99746.53;;;4.43;100.00
60583;BME280;46415;47.536;19.066;2023-01-10T10:06:42;99760.56;;;4.33;100.00
60583;BME280;46415;47.536;19.066;2023-01-10T10:09:50;99764.84;;;4.33;100.00
60583;BME280;46415;47.536;19.066;2023-01-10T10:20:22;99763.19;;;4.30;100.00
60583;BME280;46415;47.536;19.066;2023-01-10T10:26:57;99760.72;;;4.27;100.00
60583;BME280;46415;47.536;19.066;2023-01-10T10:30:11;99771.06;;;4.24;100.00
60583;BME280;46415;47.536;19.066;2023-01-10T10:36:55;99779.56;;;4.26;100.00
60583;BME280;46415;47.536;19.066;2023-01-10T10:40:27;99780.50;;;4.24;100.00
60583;BME280;46415;47.536;19.066;2023-01-10T10:43:36;99789.81;;;4.28;100.00
60583;BME280;46415;47.536;19.066;2023-01-10T10:46:40;99799.38;;;4.23;100.00
60583;BME280;46415;47.536;19.066;2023-01-10T10:49:57;99795.97;;;4.22;100.00
60583;BME280;46415;47.536;19.066;2023-01-10T10:53:04;99804.59;;;4.20;100.00
60583;BME280;46415;47.536;19.066;2023-01-10T10:56:12;99810.56;;;4.20;100.00
60583;BME280;46415;47.536;19.066;2023-01-10T10:59:18;99818.16;;;4.23;100.00
60583;BME280;46415;47.536;19.066;2023-01-10T11:02:23;99823.38;;;4.22;100.00
60583;BME280;46415;47.536;19.066;2023-01-10T11:05:31;99831.94;;;4.21;100.00
60583;BME280;46415;47.536;19.066;2023-01-10T11:08:41;99839.63;;;4.22;100.00
60583;BME280;46415;47.536;19.066;2023-01-10T11:11:46;99843.94;;;4.20;100.00
60583;BME280;46415;47.536;19.066;2023-01-10T11:14:52;99845.62;;;4.21;100.00
60583;BME280;46415;47.536;19.066;2023-01-10T11:18:12;99852.41;;;4.24;100.00
60583;BME280;46415;47.536;19.066;2023-01-10T11:21:16;99859.31;;;4.22;100.00
60583;BME280;46415;47.536;19.066;2023-01-10T11:24:33;99873.72;;;4.27;100.00
60583;BME280;46415;47.536;19.066;2023-01-10T11:27:45;99866.09;;;4.24;100.00
60583;BME280;46415;47.536;19.066;2023-01-10T11:30:49;99868.59;;;4.27;100.00
60583;BME280;46415;47.536;19.066;2023-01-10T11:33:53;99872.84;;;4.28;100.00
60583;BME280;46415;47.536;19.066;2023-01-10T11:37:00;99878.03;;;4.27;100.00
60583;BME280;46415;47.536;19.066;2023-01-10T11:40:23;99884.78;;;4.29;100.00
60583;BME280;46415;47.536;19.066;2023-01-10T11:46:33;99882.97;;;4.34;100.00
60583;BME280;46415;47.536;19.066;2023-01-10T11:49:39;99888.00;;;4.37;100.00
60583;BME280;46415;47.536;19.066;2023-01-10T11:52:45;99880.19;;;4.42;100.00
60583;BME280;46415;47.536;19.066;2023-01-10T11:55:49;99890.38;;;4.45;100.00
60583;BME280;46415;47.536;19.066;2023-01-10T11:58:52;99896.28;;;4.48;100.00
60583;BME280;46415;47.536;19.066;2023-01-10T12:02:02;99903.09;;;4.49;100.00
60583;BME280;46415;47.536;19.066;2023-01-10T12:05:20;99897.91;;;4.53;100.00
60583;BME280;46415;47.536;19.066;2023-01-10T12:08:26;99907.22;;;4.57;100.00
60583;BME280;46415;47.536;19.066;2023-01-10T12:11:31;99904.63;;;4.57;100.00
60583;BME280;46415;47.536;19.066;2023-01-10T12:14:35;99920.03;;;4.58;100.00
60583;BME280;46415;47.536;19.066;2023-01-10T12:17:38;99920.75;;;4.62;100.00
60583;BME280;46415;47.536;19.066;2023-01-10T12:20:50;99932.81;;;4.60;100.00
60583;BME280;46415;47.536;19.066;2023-01-10T12:23:56;99924.25;;;4.59;100.00
60583;BME280;46415;47.536;19.066;2023-01-10T12:27:02;99923.38;;;4.60;100.00
60583;BME280;46415;47.536;19.066;2023-01-10T12:30:06;99927.63;;;4.61;100.00
60583;BME280;46415;47.536;19.066;2023-01-10T12:33:17;99925.06;;;4.61;100.00
60583;BME280;46415;47.536;19.066;2023-01-10T12:39:43;99948.13;;;4.64;100.00
60583;BME280;46415;47.536;19.066;2023-01-10T12:43:02;99954.91;;;4.67;100.00
60583;BME280;46415;47.536;19.066;2023-01-10T12:46:56;99957.50;;;4.65;100.00
60583;BME280;46415;47.536;19.066;2023-01-10T12:50:14;99967.03;;;4.62;100.00
60583;BME280;46415;47.536;19.066;2023-01-10T12:53:48;99973.84;;;4.63;100.00
60583;BME280;46415;47.536;19.066;2023-01-10T12:56:53;99977.34;;;4.60;100.00
60583;BME280;46415;47.536;19.066;2023-01-10T13:00:00;99984.19;;;4.60;100.00
60583;BME280;46415;47.536;19.066;2023-01-10T13:03:13;99985.84;;;4.64;100.00
60583;BME280;46415;47.536;19.066;2023-01-10T13:06:29;99988.34;;;4.65;100.00
60583;BME280;46415;47.536;19.066;2023-01-10T13:09:33;99987.41;;;4.69;100.00
60583;BME280;46415;47.536;19.066;2023-01-10T13:12:39;99992.66;;;4.65;100.00
60583;BME280;46415;47.536;19.066;2023-01-10T13:22:33;100011.59;;;4.61;100.00
60583;BME280;46415;47.536;19.066;2023-01-10T13:25:37;100012.53;;;4.58;100.00
60583;BME280;46415;47.536;19.066;2023-01-10T13:28:54;100016.69;;;4.64;100.00
60583;BME280;46415;47.536;19.066;2023-01-10T13:32:00;100026.94;;;4.64;100.00
60583;BME280;46415;47.536;19.066;2023-01-10T13:35:15;100027.81;;;4.63;100.00
60583;BME280;46415;47.536;19.066;2023-01-10T13:38:35;100032.16;;;4.61;100.00
60583;BME280;46415;47.536;19.066;2023-01-10T13:48:26;100062.94;;;4.64;100.00
60583;BME280;46415;47.536;19.066;2023-01-10T13:51:30;100067.34;;;4.59;100.00
60583;BME280;46415;47.536;19.066;2023-01-10T13:54:33;100071.56;;;4.60;100.00
60583;BME280;46415;47.536;19.066;2023-01-10T14:00:54;100074.25;;;4.57;100.00
60583;BME280;46415;47.536;19.066;2023-01-10T14:04:30;100077.63;;;4.59;100.00
60583;BME280;46415;47.536;19.066;2023-01-10T14:07:48;100087.81;;;4.62;100.00
60583;BME280;46415;47.536;19.066;2023-01-10T14:11:04;100101.56;;;4.59;100.00
60583;BME280;46415;47.536;19.066;2023-01-10T14:14:38;100094.78;;;4.57;100.00
60583;BME280;46415;47.536;19.066;2023-01-10T14:17:42;100100.75;;;4.59;100.00
60583;BME280;46415;47.536;19.066;2023-01-10T14:20:54;100103.25;;;4.62;100.00
60583;BME280;46415;47.536;19.066;2023-01-10T14:23:59;100111.94;;;4.56;100.00
60583;BME280;46415;47.536;19.066;2023-01-10T14:27:03;100120.47;;;4.58;100.00
60583;BME280;46415;47.536;19.066;2023-01-10T14:30:06;100117.84;;;4.60;100.00
60583;BME280;46415;47.536;19.066;2023-01-10T14:33:15;100119.63;;;4.58;100.00
60583;BME280;46415;47.536;19.066;2023-01-10T14:36:25;100129.81;;;4.61;100.00
60583;BME280;46415;47.536;19.066;2023-01-10T14:39:29;100139.34;;;4.57;100.00
60583;BME280;46415;47.536;19.066;2023-01-10T14:42:33;100143.62;;;4.57;100.00
60583;BME280;46415;47.536;19.066;2023-01-10T14:45:44;100154.78;;;4.56;100.00
60583;BME280;46415;47.536;19.066;2023-01-10T14:48:51;100156.53;;;4.53;100.00
60583;BME280;46415;47.536;19.066;2023-01-10T14:52:19;100167.62;;;4.56;100.00
60583;BME280;46415;47.536;19.066;2023-01-10T14:55:22;100172.75;;;4.57;100.00
60583;BME280;46415;47.536;19.066;2023-01-10T14:58:25;100173.63;;;4.55;100.00
60583;BME280;46415;47.536;19.066;2023-01-10T15:01:29;100175.31;;;4.57;100.00
60583;BME280;46415;47.536;19.066;2023-01-10T15:04:34;100181.28;;;4.58;100.00
60583;BME280;46415;47.536;19.066;2023-01-10T15:07:37;100187.22;;;4.60;100.00
60583;BME280;46415;47.536;19.066;2023-01-10T15:10:41;100188.94;;;4.59;100.00
60583;BME280;46415;47.536;19.066;2023-01-10T15:13:55;100192.44;;;4.57;100.00
60583;BME280;46415;47.536;19.066;2023-01-10T15:17:02;100196.72;;;4.58;100.00
60583;BME280;46415;47.536;19.066;2023-01-10T15:20:15;100198.09;;;4.71;100.00
60583;BME280;46415;47.536;19.066;2023-01-10T15:23:19;100204.22;;;4.67;100.00
60583;BME280;46415;47.536;19.066;2023-01-10T15:26:28;100203.37;;;4.66;100.00
60583;BME280;46415;47.536;19.066;2023-01-10T15:29:32;100213.63;;;4.68;100.00
60583;BME280;46415;47.536;19.066;2023-01-10T15:32:37;100212.72;;;4.70;100.00
60583;BME280;46415;47.536;19.066;2023-01-10T15:35:43;100223.97;;;4.65;100.00
60583;BME280;46415;47.536;19.066;2023-01-10T15:38:46;100236.75;;;4.68;100.00
60583;BME280;46415;47.536;19.066;2023-01-10T15:41:55;100248.13;;;4.58;100.00
60583;BME280;46415;47.536;19.066;2023-01-10T15:45:21;100240.87;;;4.75;100.00
60583;BME280;46415;47.536;19.066;2023-01-10T15:51:37;100263.31;;;4.68;100.00
60583;BME280;46415;47.536;19.066;2023-01-10T15:54:40;100273.75;;;4.61;100.00
60583;BME280;46415;47.536;19.066;2023-01-10T15:57:50;100275.50;;;4.59;100.00
60583;BME280;46415;47.536;19.066;2023-01-10T16:00:53;100282.41;;;4.57;100.00
60583;BME280;46415;47.536;19.066;2023-01-10T16:04:03;100273.88;;;4.55;100.00
60583;BME280;46415;47.536;19.066;2023-01-10T16:10:23;100281.53;;;4.58;100.00
60583;BME280;46415;47.536;19.066;2023-01-10T16:13:27;100284.16;;;4.55;100.00
60583;BME280;46415;47.536;19.066;2023-01-10T16:16:30;100289.28;;;4.55;100.00
60583;BME280;46415;47.536;19.066;2023-01-10T16:19:33;100288.31;;;4.60;100.00
60583;BME280;46415;47.536;19.066;2023-01-10T16:22:36;100293.28;;;4.69;100.00
60583;BME280;46415;47.536;19.066;2023-01-10T16:25:43;100293.53;;;4.57;100.00
60583;BME280;46415;47.536;19.066;2023-01-10T16:28:48;100299.47;;;4.59;100.00
60583;BME280;46415;47.536;19.066;2023-01-10T16:31:51;100302.03;;;4.59;100.00
60583;BME280;46415;47.536;19.066;2023-01-10T16:34:55;100298.41;;;4.69;100.00
60583;BME280;46415;47.536;19.066;2023-01-10T16:37:57;100309.72;;;4.61;100.00
60583;BME280;46415;47.536;19.066;2023-01-10T16:41:02;100307.25;;;4.56;100.00
60583;BME280;46415;47.536;19.066;2023-01-10T16:44:28;100316.62;;;4.59;100.00
60583;BME280;46415;47.536;19.066;2023-01-10T16:47:32;100322.56;;;4.61;100.00
60583;BME280;46415;47.536;19.066;2023-01-10T16:50:34;100329.44;;;4.60;100.00
60583;BME280;46415;47.536;19.066;2023-01-10T16:53:38;100330.84;;;4.75;100.00
60583;BME280;46415;47.536;19.066;2023-01-10T16:56:41;100342.00;;;4.74;100.00
60583;BME280;46415;47.536;19.066;2023-01-10T16:59:46;100339.25;;;4.83;100.00
60583;BME280;46415;47.536;19.066;2023-01-10T17:02:49;100344.31;;;4.87;100.00
60583;BME280;46415;47.536;19.066;2023-01-10T17:05:52;100347.47;;;5.00;100.00
60583;BME280;46415;47.536;19.066;2023-01-10T17:08:55;100347.66;;;4.91;100.00
60583;BME280;46415;47.536;19.066;2023-01-10T17:12:04;100352.81;;;4.89;100.00
60583;BME280;46415;47.536;19.066;2023-01-10T17:15:11;100359.66;;;4.90;100.00
60583;BME280;46415;47.536;19.066;2023-01-10T17:18:15;100355.50;;;4.83;100.00
60583;BME280;46415;47.536;19.066;2023-01-10T17:21:19;100365.59;;;4.94;100.00
60583;BME280;46415;47.536;19.066;2023-01-10T17:24:22;100367.34;;;4.92;100.00
60583;BME280;46415;47.536;19.066;2023-01-10T17:27:25;100362.09;;;4.98;100.00
60583;BME280;46415;47.536;19.066;2023-01-10T17:30:28;100363.66;;;5.05;100.00